Bendale, South Carolina
Current Conditions -  °F | °C
As of 3:53 PM on Tuesday 21 Oct 2014 (Local Time) from KCUB Reporting Station
Clear Clear  
Wind Chill: 78°   Ceiling: Unl
Heat Index: 78°   Visibility: 10mi
Dew Point: 44°   Wind: 8mph
Humidity: 30%   Direction: 280°W
Pressure: 29.86"   Gusts: 18mph
Location:  34.1179°N, 81.0612°W
Report Text: KCUB 211953Z AUTO 28007G16KT 10SM CLR 26/07 A2986 RMK AO2 SLP110 T02560067
Loading
Personal Weather Stations






























Interactive Weather Map
Tropical Storm Tracking
New forecast layout! Learn more

10-Day Weather Forecast

Advertisements
Track Severe Weather on mobile